sensor_id;sensor_type;location;lat;lon;timestamp;P1;durP1;ratioP1;P2;durP2;ratioP2
18574;SDS011;9417;16.484;102.872;2023-10-13T00:00:24;7.68;;;4.25;;
18574;SDS011;9417;16.484;102.872;2023-10-13T00:02:33;7.10;;;3.67;;
18574;SDS011;9417;16.484;102.872;2023-10-13T00:04:43;7.38;;;3.60;;
18574;SDS011;9417;16.484;102.872;2023-10-13T00:06:51;6.18;;;3.65;;
18574;SDS011;9417;16.484;102.872;2023-10-13T00:09:00;6.60;;;3.38;;
18574;SDS011;9417;16.484;102.872;2023-10-13T00:11:11;9.77;;;4.28;;
18574;SDS011;9417;16.484;102.872;2023-10-13T00:13:21;7.33;;;4.17;;
18574;SDS011;9417;16.484;102.872;2023-10-13T00:15:30;5.15;;;3.38;;
18574;SDS011;9417;16.484;102.872;2023-10-13T00:17:42;5.57;;;3.30;;
18574;SDS011;9417;16.484;102.872;2023-10-13T00:19:50;4.88;;;3.17;;
18574;SDS011;9417;16.484;102.872;2023-10-13T00:21:58;4.07;;;2.75;;
18574;SDS011;9417;16.484;102.872;2023-10-13T00:24:12;5.93;;;3.55;;
18574;SDS011;9417;16.484;102.872;2023-10-13T00:26:27;4.43;;;3.03;;
18574;SDS011;9417;16.484;102.872;2023-10-13T00:28:41;5.53;;;3.92;;
18574;SDS011;9417;16.484;102.872;2023-10-13T00:30:51;6.70;;;3.35;;
18574;SDS011;9417;16.484;102.872;2023-10-13T00:33:04;8.43;;;3.45;;
18574;SDS011;9417;16.484;102.872;2023-10-13T00:35:13;4.75;;;3.03;;
18574;SDS011;9417;16.484;102.872;2023-10-13T00:37:28;6.60;;;4.15;;
18574;SDS011;9417;16.484;102.872;2023-10-13T00:39:45;6.05;;;3.90;;
18574;SDS011;9417;16.484;102.872;2023-10-13T00:42:00;4.28;;;2.72;;
18574;SDS011;9417;16.484;102.872;2023-10-13T00:44:13;5.28;;;3.63;;
18574;SDS011;9417;16.484;102.872;2023-10-13T00:46:20;6.65;;;3.78;;
18574;SDS011;9417;16.484;102.872;2023-10-13T00:48:37;6.50;;;2.90;;
18574;SDS011;9417;16.484;102.872;2023-10-13T00:50:57;10.88;;;9.88;;
18574;SDS011;9417;16.484;102.872;2023-10-13T00:53:06;11.13;;;10.10;;
18574;SDS011;9417;16.484;102.872;2023-10-13T00:55:13;5.82;;;3.47;;
18574;SDS011;9417;16.484;102.872;2023-10-13T00:57:26;7.05;;;3.63;;
18574;SDS011;9417;16.484;102.872;2023-10-13T00:59:35;9.23;;;3.95;;
18574;SDS011;9417;16.484;102.872;2023-10-13T01:01:46;6.35;;;4.15;;
18574;SDS011;9417;16.484;102.872;2023-10-13T01:03:58;6.55;;;3.80;;
18574;SDS011;9417;16.484;102.872;2023-10-13T01:06:32;9.18;;;3.63;;
18574;SDS011;9417;16.484;102.872;2023-10-13T01:08:41;5.47;;;3.47;;
18574;SDS011;9417;16.484;102.872;2023-10-13T01:10:52;5.30;;;3.55;;
18574;SDS011;9417;16.484;102.872;2023-10-13T01:12:58;7.10;;;3.30;;
18574;SDS011;9417;16.484;102.872;2023-10-13T01:15:10;3.88;;;2.38;;
18574;SDS011;9417;16.484;102.872;2023-10-13T01:17:20;4.72;;;2.50;;
18574;SDS011;9417;16.484;102.872;2023-10-13T01:19:28;5.30;;;2.97;;
18574;SDS011;9417;16.484;102.872;2023-10-13T01:21:35;6.32;;;2.63;;
18574;SDS011;9417;16.484;102.872;2023-10-13T01:23:46;3.95;;;2.30;;
18574;SDS011;9417;16.484;102.872;2023-10-13T01:25:54;6.28;;;3.38;;
18574;SDS011;9417;16.484;102.872;2023-10-13T01:28:02;4.88;;;2.65;;
18574;SDS011;9417;16.484;102.872;2023-10-13T01:30:13;4.30;;;2.65;;
18574;SDS011;9417;16.484;102.872;2023-10-13T01:32:21;3.97;;;2.35;;
18574;SDS011;9417;16.484;102.872;2023-10-13T01:34:30;4.53;;;2.35;;
18574;SDS011;9417;16.484;102.872;2023-10-13T01:36:38;4.15;;;2.72;;
18574;SDS011;9417;16.484;102.872;2023-10-13T01:38:49;3.47;;;2.70;;
18574;SDS011;9417;16.484;102.872;2023-10-13T01:40:56;5.38;;;3.25;;
18574;SDS011;9417;16.484;102.872;2023-10-13T01:43:05;5.03;;;2.92;;
18574;SDS011;9417;16.484;102.872;2023-10-13T01:45:14;6.15;;;3.30;;
18574;SDS011;9417;16.484;102.872;2023-10-13T01:47:24;6.15;;;3.38;;
18574;SDS011;9417;16.484;102.872;2023-10-13T01:49:31;4.60;;;3.22;;
18574;SDS011;9417;16.484;102.872;2023-10-13T01:51:47;6.05;;;2.60;;
18574;SDS011;9417;16.484;102.872;2023-10-13T01:53:55;5.22;;;3.28;;
18574;SDS011;9417;16.484;102.872;2023-10-13T01:56:07;5.53;;;2.47;;
18574;SDS011;9417;16.484;102.872;2023-10-13T01:58:17;4.68;;;3.10;;
18574;SDS011;9417;16.484;102.872;2023-10-13T02:00:26;4.70;;;3.08;;
18574;SDS011;9417;16.484;102.872;2023-10-13T02:02:36;3.70;;;2.53;;
18574;SDS011;9417;16.484;102.872;2023-10-13T02:04:49;4.38;;;2.85;;
18574;SDS011;9417;16.484;102.872;2023-10-13T02:07:01;6.35;;;3.42;;
18574;SDS011;9417;16.484;102.872;2023-10-13T02:09:15;9.45;;;8.65;;
18574;SDS011;9417;16.484;102.872;2023-10-13T02:11:29;12.27;;;9.95;;
18574;SDS011;9417;16.484;102.872;2023-10-13T02:13:37;5.47;;;3.28;;
18574;SDS011;9417;16.484;102.872;2023-10-13T02:15:56;13.18;;;11.88;;
18574;SDS011;9417;16.484;102.872;2023-10-13T02:18:08;5.10;;;2.80;;
18574;SDS011;9417;16.484;102.872;2023-10-13T02:20:14;12.93;;;11.73;;
18574;SDS011;9417;16.484;102.872;2023-10-13T02:24:35;4.70;;;2.25;;
18574;SDS011;9417;16.484;102.872;2023-10-13T02:26:44;5.22;;;2.17;;
18574;SDS011;9417;16.484;102.872;2023-10-13T02:28:50;7.38;;;2.88;;
18574;SDS011;9417;16.484;102.872;2023-10-13T02:31:01;3.73;;;2.00;;
18574;SDS011;9417;16.484;102.872;2023-10-13T02:33:09;4.00;;;2.72;;
18574;SDS011;9417;16.484;102.872;2023-10-13T02:35:18;4.80;;;2.80;;
18574;SDS011;9417;16.484;102.872;2023-10-13T02:37:33;12.70;;;11.57;;
18574;SDS011;9417;16.484;102.872;2023-10-13T02:39:43;14.50;;;12.63;;
18574;SDS011;9417;16.484;102.872;2023-10-13T02:41:49;13.73;;;12.43;;
18574;SDS011;9417;16.484;102.872;2023-10-13T02:43:59;14.27;;;12.90;;
18574;SDS011;9417;16.484;102.872;2023-10-13T02:46:09;6.32;;;2.80;;
18574;SDS011;9417;16.484;102.872;2023-10-13T02:48:20;4.10;;;2.63;;
18574;SDS011;9417;16.484;102.872;2023-10-13T02:50:26;4.05;;;2.42;;
18574;SDS011;9417;16.484;102.872;2023-10-13T02:52:37;7.78;;;3.17;;
18574;SDS011;9417;16.484;102.872;2023-10-13T02:54:47;4.45;;;2.63;;
18574;SDS011;9417;16.484;102.872;2023-10-13T02:56:55;5.88;;;2.90;;
18574;SDS011;9417;16.484;102.872;2023-10-13T02:59:02;8.80;;;3.05;;
18574;SDS011;9417;16.484;102.872;2023-10-13T03:01:11;6.20;;;3.17;;
18574;SDS011;9417;16.484;102.872;2023-10-13T03:03:24;5.60;;;3.17;;
18574;SDS011;9417;16.484;102.872;2023-10-13T03:05:34;5.30;;;2.45;;
18574;SDS011;9417;16.484;102.872;2023-10-13T03:07:42;5.38;;;2.88;;
18574;SDS011;9417;16.484;102.872;2023-10-13T03:09:52;7.97;;;3.25;;
18574;SDS011;9417;16.484;102.872;2023-10-13T03:12:03;6.50;;;3.45;;
18574;SDS011;9417;16.484;102.872;2023-10-13T03:14:12;7.03;;;3.33;;
18574;SDS011;9417;16.484;102.872;2023-10-13T03:16:27;5.85;;;3.15;;
18574;SDS011;9417;16.484;102.872;2023-10-13T03:18:36;8.38;;;3.63;;
18574;SDS011;9417;16.484;102.872;2023-10-13T03:20:42;5.30;;;2.90;;
18574;SDS011;9417;16.484;102.872;2023-10-13T03:25:01;6.25;;;4.28;;
18574;SDS011;9417;16.484;102.872;2023-10-13T03:27:10;6.53;;;3.30;;
18574;SDS011;9417;16.484;102.872;2023-10-13T03:29:39;7.60;;;3.72;;
18574;SDS011;9417;16.484;102.872;2023-10-13T03:31:47;10.20;;;3.72;;
18574;SDS011;9417;16.484;102.872;2023-10-13T03:34:10;5.40;;;3.33;;
18574;SDS011;9417;16.484;102.872;2023-10-13T03:36:18;5.78;;;3.70;;
18574;SDS011;9417;16.484;102.872;2023-10-13T03:38:53;6.72;;;3.40;;
18574;SDS011;9417;16.484;102.872;2023-10-13T03:41:02;5.13;;;2.85;;
18574;SDS011;9417;16.484;102.872;2023-10-13T03:43:15;5.45;;;2.55;;
18574;SDS011;9417;16.484;102.872;2023-10-13T03:45:25;3.28;;;2.30;;
18574;SDS011;9417;16.484;102.872;2023-10-13T03:47:40;4.05;;;2.33;;
18574;SDS011;9417;16.484;102.872;2023-10-13T03:49:49;4.63;;;2.70;;
18574;SDS011;9417;16.484;102.872;2023-10-13T03:52:18;7.07;;;2.75;;
18574;SDS011;9417;16.484;102.872;2023-10-13T03:54:27;6.05;;;2.85;;
18574;SDS011;9417;16.484;102.872;2023-10-13T03:56:36;4.38;;;2.88;;
18574;SDS011;9417;16.484;102.872;2023-10-13T03:58:48;5.97;;;3.53;;
18574;SDS011;9417;16.484;102.872;2023-10-13T04:00:58;7.72;;;2.72;;
18574;SDS011;9417;16.484;102.872;2023-10-13T04:03:07;3.80;;;2.03;;
18574;SDS011;9417;16.484;102.872;2023-10-13T04:05:20;3.95;;;2.42;;
18574;SDS011;9417;16.484;102.872;2023-10-13T04:07:40;3.85;;;2.72;;
18574;SDS011;9417;16.484;102.872;2023-10-13T04:10:09;2.88;;;1.92;;
18574;SDS011;9417;16.484;102.872;2023-10-13T04:12:31;5.45;;;2.50;;
18574;SDS011;9417;16.484;102.872;2023-10-13T04:14:58;5.57;;;2.83;;
18574;SDS011;9417;16.484;102.872;2023-10-13T04:17:27;2.83;;;2.03;;
18574;SDS011;9417;16.484;102.872;2023-10-13T04:19:44;4.38;;;2.55;;
18574;SDS011;9417;16.484;102.872;2023-10-13T04:22:05;4.25;;;2.40;;
18574;SDS011;9417;16.484;102.872;2023-10-13T04:24:25;5.45;;;2.55;;
18574;SDS011;9417;16.484;102.872;2023-10-13T04:27:03;5.03;;;2.30;;
18574;SDS011;9417;16.484;102.872;2023-10-13T04:29:29;6.72;;;2.33;;
18574;SDS011;9417;16.484;102.872;2023-10-13T04:31:50;6.13;;;3.05;;
18574;SDS011;9417;16.484;102.872;2023-10-13T04:34:04;3.70;;;2.15;;
18574;SDS011;9417;16.484;102.872;2023-10-13T04:36:19;4.88;;;2.35;;
18574;SDS011;9417;16.484;102.872;2023-10-13T04:38:40;4.90;;;2.45;;
18574;SDS011;9417;16.484;102.872;2023-10-13T04:41:00;6.00;;;2.53;;
18574;SDS011;9417;16.484;102.872;2023-10-13T04:43:14;3.35;;;2.33;;
18574;SDS011;9417;16.484;102.872;2023-10-13T04:45:38;6.78;;;2.85;;
18574;SDS011;9417;16.484;102.872;2023-10-13T04:47:58;5.60;;;3.17;;
18574;SDS011;9417;16.484;102.872;2023-10-13T04:50:18;4.32;;;2.45;;
18574;SDS011;9417;16.484;102.872;2023-10-13T04:52:34;5.70;;;2.83;;
18574;SDS011;9417;16.484;102.872;2023-10-13T04:55:06;6.00;;;3.15;;
18574;SDS011;9417;16.484;102.872;2023-10-13T04:57:36;3.53;;;2.28;;
18574;SDS011;9417;16.484;102.872;2023-10-13T04:59:51;3.13;;;1.67;;
18574;SDS011;9417;16.484;102.872;2023-10-13T05:02:32;2.75;;;2.10;;
18574;SDS011;9417;16.484;102.872;2023-10-13T05:04:56;5.22;;;2.53;;
18574;SDS011;9417;16.484;102.872;2023-10-13T05:07:20;4.25;;;2.28;;
18574;SDS011;9417;16.484;102.872;2023-10-13T05:09:44;6.43;;;3.15;;
18574;SDS011;9417;16.484;102.872;2023-10-13T05:12:08;4.13;;;2.30;;
18574;SDS011;9417;16.484;102.872;2023-10-13T05:14:32;2.80;;;1.92;;
18574;SDS011;9417;16.484;102.872;2023-10-13T05:16:56;3.85;;;2.17;;
18574;SDS011;9417;16.484;102.872;2023-10-13T05:19:31;2.78;;;2.03;;
18574;SDS011;9417;16.484;102.872;2023-10-13T05:21:55;4.45;;;2.35;;
18574;SDS011;9417;16.484;102.872;2023-10-13T05:24:19;2.75;;;2.10;;
18574;SDS011;9417;16.484;102.872;2023-10-13T05:26:43;3.50;;;2.50;;
18574;SDS011;9417;16.484;102.872;2023-10-13T05:29:07;4.50;;;2.42;;
18574;SDS011;9417;16.484;102.872;2023-10-13T05:31:40;3.13;;;1.85;;
18574;SDS011;9417;16.484;102.872;2023-10-13T05:34:03;3.28;;;2.35;;
18574;SDS011;9417;16.484;102.872;2023-10-13T05:36:29;5.05;;;2.72;;
18574;SDS011;9417;16.484;102.872;2023-10-13T05:38:53;5.60;;;2.30;;
18574;SDS011;9417;16.484;102.872;2023-10-13T05:41:16;3.08;;;1.65;;
18574;SDS011;9417;16.484;102.872;2023-10-13T05:43:40;2.60;;;2.00;;
18574;SDS011;9417;16.484;102.872;2023-10-13T05:46:05;5.38;;;2.05;;
18574;SDS011;9417;16.484;102.872;2023-10-13T05:48:41;3.40;;;2.15;;
18574;SDS011;9417;16.484;102.872;2023-10-13T05:51:13;5.95;;;2.10;;
18574;SDS011;9417;16.484;102.872;2023-10-13T05:53:49;2.38;;;1.45;;
18574;SDS011;9417;16.484;102.872;2023-10-13T05:56:13;2.92;;;1.92;;
18574;SDS011;9417;16.484;102.872;2023-10-13T05:58:36;2.75;;;1.60;;
18574;SDS011;9417;16.484;102.872;2023-10-13T06:01:02;2.80;;;1.80;;
18574;SDS011;9417;16.484;102.872;2023-10-13T06:03:26;6.85;;;2.65;;
18574;SDS011;9417;16.484;102.872;2023-10-13T06:05:50;4.35;;;2.28;;
18574;SDS011;9417;16.484;102.872;2023-10-13T06:08:14;1.95;;;1.30;;
18574;SDS011;9417;16.484;102.872;2023-10-13T06:10:40;4.70;;;1.45;;
18574;SDS011;9417;16.484;102.872;2023-10-13T06:13:04;3.33;;;2.17;;
18574;SDS011;9417;16.484;102.872;2023-10-13T06:15:28;3.05;;;2.00;;
18574;SDS011;9417;16.484;102.872;2023-10-13T06:17:52;4.38;;;2.05;;
18574;SDS011;9417;16.484;102.872;2023-10-13T06:20:17;9.73;;;2.78;;
18574;SDS011;9417;16.484;102.872;2023-10-13T06:22:41;4.95;;;1.92;;
18574;SDS011;9417;16.484;102.872;2023-10-13T06:25:09;3.95;;;1.48;;
18574;SDS011;9417;16.484;102.872;2023-10-13T06:27:35;4.65;;;1.65;;
18574;SDS011;9417;16.484;102.872;2023-10-13T06:29:58;3.17;;;1.45;;
18574;SDS011;9417;16.484;102.872;2023-10-13T06:32:08;2.78;;;1.90;;
18574;SDS011;9417;16.484;102.872;2023-10-13T06:34:17;3.95;;;1.80;;
18574;SDS011;9417;16.484;102.872;2023-10-13T06:36:32;2.55;;;1.73;;
18574;SDS011;9417;16.484;102.872;2023-10-13T06:40:58;1.48;;;1.30;;
18574;SDS011;9417;16.484;102.872;2023-10-13T06:43:11;3.30;;;1.80;;
18574;SDS011;9417;16.484;102.872;2023-10-13T06:45:21;2.20;;;1.52;;
18574;SDS011;9417;16.484;102.872;2023-10-13T06:47:32;3.22;;;2.03;;
18574;SDS011;9417;16.484;102.872;2023-10-13T06:49:43;3.08;;;1.92;;
18574;SDS011;9417;16.484;102.872;2023-10-13T06:51:55;2.17;;;1.10;;
18574;SDS011;9417;16.484;102.872;2023-10-13T06:54:04;3.67;;;1.83;;
18574;SDS011;9417;16.484;102.872;2023-10-13T06:56:24;2.22;;;1.33;;
18574;SDS011;9417;16.484;102.872;2023-10-13T06:58:36;7.18;;;2.05;;
18574;SDS011;9417;16.484;102.872;2023-10-13T07:00:47;1.80;;;1.60;;
18574;SDS011;9417;16.484;102.872;2023-10-13T07:03:01;5.05;;;2.40;;
18574;SDS011;9417;16.484;102.872;2023-10-13T07:05:13;3.40;;;1.98;;
18574;SDS011;9417;16.484;102.872;2023-10-13T07:07:21;3.05;;;1.80;;
18574;SDS011;9417;16.484;102.872;2023-10-13T07:09:28;3.30;;;1.48;;
18574;SDS011;9417;16.484;102.872;2023-10-13T07:11:46;2.65;;;1.75;;
18574;SDS011;9417;16.484;102.872;2023-10-13T07:13:58;1.95;;;1.70;;
18574;SDS011;9417;16.484;102.872;2023-10-13T07:16:14;2.78;;;2.08;;
18574;SDS011;9417;16.484;102.872;2023-10-13T07:18:32;2.70;;;2.03;;
18574;SDS011;9417;16.484;102.872;2023-10-13T07:20:46;1.70;;;1.30;;
18574;SDS011;9417;16.484;102.872;2023-10-13T07:22:54;2.22;;;1.50;;
18574;SDS011;9417;16.484;102.872;2023-10-13T07:25:07;3.13;;;1.65;;
18574;SDS011;9417;16.484;102.872;2023-10-13T07:27:22;2.63;;;1.77;;
18574;SDS011;9417;16.484;102.872;2023-10-13T07:29:32;2.92;;;1.40;;
18574;SDS011;9417;16.484;102.872;2023-10-13T07:31:40;1.45;;;1.35;;
18574;SDS011;9417;16.484;102.872;2023-10-13T07:33:50;2.60;;;1.60;;
18574;SDS011;9417;16.484;102.872;2023-10-13T07:36:08;4.13;;;1.63;;
18574;SDS011;9417;16.484;102.872;2023-10-13T07:38:19;4.88;;;1.83;;
18574;SDS011;9417;16.484;102.872;2023-10-13T07:40:27;2.83;;;1.88;;
18574;SDS011;9417;16.484;102.872;2023-10-13T07:42:45;7.93;;;3.45;;
18574;SDS011;9417;16.484;102.872;2023-10-13T07:44:55;5.75;;;3.47;;
18574;SDS011;9417;16.484;102.872;2023-10-13T07:47:03;5.18;;;2.08;;
18574;SDS011;9417;16.484;102.872;2023-10-13T07:49:11;3.97;;;1.83;;
18574;SDS011;9417;16.484;102.872;2023-10-13T07:51:19;5.00;;;2.80;;
18574;SDS011;9417;16.484;102.872;2023-10-13T07:53:31;4.57;;;2.00;;
18574;SDS011;9417;16.484;102.872;2023-10-13T07:55:43;1.88;;;1.52;;
18574;SDS011;9417;16.484;102.872;2023-10-13T07:57:52;3.30;;;1.70;;
18574;SDS011;9417;16.484;102.872;2023-10-13T08:00:02;2.33;;;1.58;;
18574;SDS011;9417;16.484;102.872;2023-10-13T08:02:14;1.90;;;1.38;;
18574;SDS011;9417;16.484;102.872;2023-10-13T08:04:46;1.98;;;1.60;;
18574;SDS011;9417;16.484;102.872;2023-10-13T08:06:55;1.52;;;1.23;;
18574;SDS011;9417;16.484;102.872;2023-10-13T08:09:17;2.65;;;1.50;;
18574;SDS011;9417;16.484;102.872;2023-10-13T08:11:44;1.83;;;1.23;;
18574;SDS011;9417;16.484;102.872;2023-10-13T08:13:52;1.65;;;1.02;;
18574;SDS011;9417;16.484;102.872;2023-10-13T08:16:13;1.73;;;1.10;;
18574;SDS011;9417;16.484;102.872;2023-10-13T08:18:25;2.05;;;1.17;;
18574;SDS011;9417;16.484;102.872;2023-10-13T08:20:39;2.17;;;1.38;;
18574;SDS011;9417;16.484;102.872;2023-10-13T08:22:48;2.47;;;1.42;;
18574;SDS011;9417;16.484;102.872;2023-10-13T08:25:16;3.60;;;1.55;;
18574;SDS011;9417;16.484;102.872;2023-10-13T08:27:29;6.80;;;1.88;;
18574;SDS011;9417;16.484;102.872;2023-10-13T08:29:52;2.80;;;1.67;;
18574;SDS011;9417;16.484;102.872;2023-10-13T08:32:18;2.15;;;1.40;;
18574;SDS011;9417;16.484;102.872;2023-10-13T08:34:40;2.53;;;1.73;;
18574;SDS011;9417;16.484;102.872;2023-10-13T08:37:01;1.47;;;1.37;;
18574;SDS011;9417;16.484;102.872;2023-10-13T08:39:23;3.25;;;1.85;;
18574;SDS011;9417;16.484;102.872;2023-10-13T08:41:43;3.17;;;1.60;;
18574;SDS011;9417;16.484;102.872;2023-10-13T08:44:16;1.60;;;1.17;;
18574;SDS011;9417;16.484;102.872;2023-10-13T08:46:38;3.40;;;1.38;;
18574;SDS011;9417;16.484;102.872;2023-10-13T08:49:12;1.90;;;1.10;;
18574;SDS011;9417;16.484;102.872;2023-10-13T08:51:19;3.22;;;1.45;;
18574;SDS011;9417;16.484;102.872;2023-10-13T08:53:48;1.73;;;1.23;;
18574;SDS011;9417;16.484;102.872;2023-10-13T08:56:02;1.23;;;1.00;;
18574;SDS011;9417;16.484;102.872;2023-10-13T08:58:12;0.98;;;0.88;;
18574;SDS011;9417;16.484;102.872;2023-10-13T09:00:24;1.80;;;1.17;;
18574;SDS011;9417;16.484;102.872;2023-10-13T09:02:32;3.38;;;1.05;;
18574;SDS011;9417;16.484;102.872;2023-10-13T09:04:55;3.05;;;1.33;;
18574;SDS011;9417;16.484;102.872;2023-10-13T09:07:13;1.23;;;1.00;;
18574;SDS011;9417;16.484;102.872;2023-10-13T09:09:20;1.90;;;1.40;;
18574;SDS011;9417;16.484;102.872;2023-10-13T09:11:38;1.85;;;1.50;;
18574;SDS011;9417;16.484;102.872;2023-10-13T09:13:53;1.95;;;1.30;;
18574;SDS011;9417;16.484;102.872;2023-10-13T09:16:11;1.48;;;1.20;;
18574;SDS011;9417;16.484;102.872;2023-10-13T09:18:26;2.03;;;1.35;;
18574;SDS011;9417;16.484;102.872;2023-10-13T09:20:58;2.67;;;1.20;;
18574;SDS011;9417;16.484;102.872;2023-10-13T09:23:25;2.80;;;1.10;;
18574;SDS011;9417;16.484;102.872;2023-10-13T09:25:49;0.95;;;0.90;;
18574;SDS011;9417;16.484;102.872;2023-10-13T09:28:02;1.60;;;1.20;;
18574;SDS011;9417;16.484;102.872;2023-10-13T09:30:14;1.70;;;1.13;;
18574;SDS011;9417;16.484;102.872;2023-10-13T09:32:24;2.75;;;1.58;;
18574;SDS011;9417;16.484;102.872;2023-10-13T09:34:32;1.30;;;1.20;;
18574;SDS011;9417;16.484;102.872;2023-10-13T09:36:46;1.77;;;1.45;;
18574;SDS011;9417;16.484;102.872;2023-10-13T09:38:58;1.42;;;1.33;;
18574;SDS011;9417;16.484;102.872;2023-10-13T09:41:16;2.53;;;1.58;;
18574;SDS011;9417;16.484;102.872;2023-10-13T09:43:23;2.20;;;1.42;;
18574;SDS011;9417;16.484;102.872;2023-10-13T09:45:33;4.40;;;1.67;;
18574;SDS011;9417;16.484;102.872;2023-10-13T09:47:44;2.80;;;1.80;;
18574;SDS011;9417;16.484;102.872;2023-10-13T09:49:58;6.50;;;2.15;;
18574;SDS011;9417;16.484;102.872;2023-10-13T09:52:11;5.78;;;1.80;;
18574;SDS011;9417;16.484;102.872;2023-10-13T09:54:25;11.80;;;10.80;;
18574;SDS011;9417;16.484;102.872;2023-10-13T09:56:40;4.22;;;2.25;;
18574;SDS011;9417;16.484;102.872;2023-10-13T09:58:58;4.60;;;1.80;;
18574;SDS011;9417;16.484;102.872;2023-10-13T10:01:17;2.50;;;1.83;;
18574;SDS011;9417;16.484;102.872;2023-10-13T10:03:44;5.95;;;2.13;;
18574;SDS011;9417;16.484;102.872;2023-10-13T10:05:58;6.93;;;3.03;;
18574;SDS011;9417;16.484;102.872;2023-10-13T10:08:27;16.98;;;4.22;;
18574;SDS011;9417;16.484;102.872;2023-10-13T10:10:46;12.85;;;3.70;;
18574;SDS011;9417;16.484;102.872;2023-10-13T10:12:59;13.68;;;5.20;;
18574;SDS011;9417;16.484;102.872;2023-10-13T10:15:20;18.83;;;4.97;;
18574;SDS011;9417;16.484;102.872;2023-10-13T10:17:41;8.88;;;3.63;;
18574;SDS011;9417;16.484;102.872;2023-10-13T10:19:49;8.82;;;3.17;;
18574;SDS011;9417;16.484;102.872;2023-10-13T10:22:02;7.97;;;3.53;;
18574;SDS011;9417;16.484;102.872;2023-10-13T10:24:22;4.65;;;2.70;;
18574;SDS011;9417;16.484;102.872;2023-10-13T10:26:33;5.72;;;2.85;;
18574;SDS011;9417;16.484;102.872;2023-10-13T10:28:40;4.13;;;2.50;;
18574;SDS011;9417;16.484;102.872;2023-10-13T10:30:49;5.18;;;2.05;;
18574;SDS011;9417;16.484;102.872;2023-10-13T10:32:57;4.60;;;2.80;;
18574;SDS011;9417;16.484;102.872;2023-10-13T10:35:12;3.42;;;1.92;;
18574;SDS011;9417;16.484;102.872;2023-10-13T10:37:30;4.43;;;2.17;;
18574;SDS011;9417;16.484;102.872;2023-10-13T10:39:40;3.67;;;2.13;;
18574;SDS011;9417;16.484;102.872;2023-10-13T10:41:51;4.97;;;2.55;;
18574;SDS011;9417;16.484;102.872;2023-10-13T10:44:09;3.10;;;2.28;;
18574;SDS011;9417;16.484;102.872;2023-10-13T10:46:27;4.30;;;2.55;;
18574;SDS011;9417;16.484;102.872;2023-10-13T10:48:41;5.68;;;2.53;;
18574;SDS011;9417;16.484;102.872;2023-10-13T10:50:55;4.45;;;2.65;;
18574;SDS011;9417;16.484;102.872;2023-10-13T10:53:04;4.97;;;2.42;;
18574;SDS011;9417;16.484;102.872;2023-10-13T10:55:19;4.20;;;2.33;;
18574;SDS011;9417;16.484;102.872;2023-10-13T10:57:32;6.90;;;3.13;;
18574;SDS011;9417;16.484;102.872;2023-10-13T10:59:41;12.15;;;3.63;;
18574;SDS011;9417;16.484;102.872;2023-10-13T11:01:49;7.95;;;3.65;;
18574;SDS011;9417;16.484;102.872;2023-10-13T11:03:58;9.35;;;4.40;;
18574;SDS011;9417;16.484;102.872;2023-10-13T11:06:12;7.32;;;3.33;;
18574;SDS011;9417;16.484;102.872;2023-10-13T11:08:23;10.95;;;4.38;;
18574;SDS011;9417;16.484;102.872;2023-10-13T11:10:45;8.10;;;3.53;;
18574;SDS011;9417;16.484;102.872;2023-10-13T11:12:54;7.88;;;3.65;;
18574;SDS011;9417;16.484;102.872;2023-10-13T11:17:26;13.35;;;5.13;;
18574;SDS011;9417;16.484;102.872;2023-10-13T11:19:45;6.03;;;4.07;;
18574;SDS011;9417;16.484;102.872;2023-10-13T11:21:54;18.08;;;5.45;;
18574;SDS011;9417;16.484;102.872;2023-10-13T11:26:17;8.68;;;3.58;;
18574;SDS011;9417;16.484;102.872;2023-10-13T11:28:26;7.35;;;3.47;;
18574;SDS011;9417;16.484;102.872;2023-10-13T11:30:35;7.30;;;3.38;;
18574;SDS011;9417;16.484;102.872;2023-10-13T11:32:56;13.30;;;12.27;;
18574;SDS011;9417;16.484;102.872;2023-10-13T11:35:05;12.18;;;9.75;;
18574;SDS011;9417;16.484;102.872;2023-10-13T11:37:14;11.18;;;10.35;;
18574;SDS011;9417;16.484;102.872;2023-10-13T11:39:42;14.93;;;12.18;;
18574;SDS011;9417;16.484;102.872;2023-10-13T11:41:51;30.08;;;16.00;;
18574;SDS011;9417;16.484;102.872;2023-10-13T11:44:02;52.97;;;22.48;;
18574;SDS011;9417;16.484;102.872;2023-10-13T11:46:27;50.00;;;23.40;;
18574;SDS011;9417;16.484;102.872;2023-10-13T11:48:51;68.60;;;30.15;;
18574;SDS011;9417;16.484;102.872;2023-10-13T11:51:08;58.53;;;28.10;;
18574;SDS011;9417;16.484;102.872;2023-10-13T11:53:21;61.63;;;22.83;;
18574;SDS011;9417;16.484;102.872;2023-10-13T11:55:31;48.05;;;23.58;;
18574;SDS011;9417;16.484;102.872;2023-10-13T11:57:42;50.53;;;22.13;;
18574;SDS011;9417;16.484;102.872;2023-10-13T11:59:50;33.45;;;19.10;;
18574;SDS011;9417;16.484;102.872;2023-10-13T12:02:20;34.72;;;18.85;;
18574;SDS011;9417;16.484;102.872;2023-10-13T12:04:45;38.17;;;19.08;;
18574;SDS011;9417;16.484;102.872;2023-10-13T12:06:55;27.98;;;17.30;;
18574;SDS011;9417;16.484;102.872;2023-10-13T12:09:18;30.70;;;15.73;;
18574;SDS011;9417;16.484;102.872;2023-10-13T12:11:49;19.67;;;13.77;;
18574;SDS011;9417;16.484;102.872;2023-10-13T12:14:00;22.25;;;13.70;;
18574;SDS011;9417;16.484;102.872;2023-10-13T12:16:15;18.75;;;16.85;;
18574;SDS011;9417;16.484;102.872;2023-10-13T12:18:24;16.38;;;10.05;;
18574;SDS011;9417;16.484;102.872;2023-10-13T12:20:31;10.55;;;8.88;;
18574;SDS011;9417;16.484;102.872;2023-10-13T12:22:39;10.68;;;8.38;;
18574;SDS011;9417;16.484;102.872;2023-10-13T12:24:55;18.58;;;15.88;;
18574;SDS011;9417;16.484;102.872;2023-10-13T12:27:08;17.08;;;15.27;;
18574;SDS011;9417;16.484;102.872;2023-10-13T12:29:33;16.23;;;12.10;;
18574;SDS011;9417;16.484;102.872;2023-10-13T12:31:48;5.75;;;3.80;;
18574;SDS011;9417;16.484;102.872;2023-10-13T12:34:09;7.18;;;3.33;;
18574;SDS011;9417;16.484;102.872;2023-10-13T12:36:23;6.97;;;3.28;;
18574;SDS011;9417;16.484;102.872;2023-10-13T12:38:45;6.50;;;3.42;;
18574;SDS011;9417;16.484;102.872;2023-10-13T12:41:16;16.10;;;14.40;;
18574;SDS011;9417;16.484;102.872;2023-10-13T12:43:40;16.98;;;15.25;;
18574;SDS011;9417;16.484;102.872;2023-10-13T12:46:06;4.55;;;2.72;;
18574;SDS011;9417;16.484;102.872;2023-10-13T12:48:30;4.60;;;2.85;;
18574;SDS011;9417;16.484;102.872;2023-10-13T12:50:55;5.15;;;2.83;;
18574;SDS011;9417;16.484;102.872;2023-10-13T12:53:23;9.65;;;3.20;;
18574;SDS011;9417;16.484;102.872;2023-10-13T12:55:35;6.38;;;3.00;;
18574;SDS011;9417;16.484;102.872;2023-10-13T12:57:47;5.00;;;2.92;;
18574;SDS011;9417;16.484;102.872;2023-10-13T13:00:01;14.90;;;13.50;;
18574;SDS011;9417;16.484;102.872;2023-10-13T13:02:23;5.40;;;2.70;;
18574;SDS011;9417;16.484;102.872;2023-10-13T13:04:33;3.85;;;2.53;;
18574;SDS011;9417;16.484;102.872;2023-10-13T13:06:42;6.25;;;3.22;;
18574;SDS011;9417;16.484;102.872;2023-10-13T13:08:51;4.70;;;2.63;;
18574;SDS011;9417;16.484;102.872;2023-10-13T13:10:59;5.90;;;2.30;;
18574;SDS011;9417;16.484;102.872;2023-10-13T13:13:06;7.18;;;3.50;;
18574;SDS011;9417;16.484;102.872;2023-10-13T13:15:14;6.28;;;3.45;;
18574;SDS011;9417;16.484;102.872;2023-10-13T13:17:29;4.05;;;2.85;;
18574;SDS011;9417;16.484;102.872;2023-10-13T13:19:37;5.65;;;5.03;;
18574;SDS011;9417;16.484;102.872;2023-10-13T13:21:45;5.00;;;4.55;;
18574;SDS011;9417;16.484;102.872;2023-10-13T13:23:53;7.85;;;4.60;;
18574;SDS011;9417;16.484;102.872;2023-10-13T13:26:02;7.68;;;3.20;;
18574;SDS011;9417;16.484;102.872;2023-10-13T13:28:20;5.53;;;3.05;;
18574;SDS011;9417;16.484;102.872;2023-10-13T13:30:28;5.63;;;2.88;;